Time;durP1;ratioP1;P1;durP2;ratioP2;P2;SDS_P1;SDS_P2;PMS_P1;PMS_P2;Temp;Humidity;BMP_temperature;BMP_pressure;BME280_temperature;BME280_humidity;BME280_pressure;Samples;Min_cycle;Max_cycle;Signal;HPM_P1;HPM_P2
2022/09/05 00:00:02;;;;;;;8.70;7.22;;;18.40;99.90;;;;;;5026584;28;20040;-69
2022/09/05 00:02:39;;;;;;;13.85;7.80;;;18.40;99.90;;;;;;5052592;28;20438;-69
2022/09/05 00:05:24;;;;;;;12.77;7.78;;;18.30;99.90;;;;;;5036330;28;20037;-69
2022/09/05 00:07:55;;;;;;;8.27;7.47;;;18.30;99.90;;;;;;5062414;28;20419;-69
2022/09/05 00:10:47;;;;;;;10.13;8.18;;;18.20;99.90;;;;;;5058671;28;20041;-69
2022/09/05 00:13:48;;;;;;;9.30;8.38;;;18.20;99.90;;;;;;5049685;28;20037;-69
2022/09/05 00:16:25;;;;;;;9.40;8.25;;;18.20;99.90;;;;;;5055036;28;20410;-69
2022/09/05 00:19:21;;;;;;;13.23;8.38;;;18.10;99.90;;;;;;5056579;28;20068;-69
2022/09/05 00:22:09;;;;;;;9.82;8.82;;;18.10;99.90;;;;;;5060627;28;20099;-69
2022/09/05 00:24:52;;;;;;;10.13;8.73;;;18.10;99.90;;;;;;5072311;28;20041;-69
2022/09/05 00:27:44;;;;;;;10.43;9.00;;;18.00;99.90;;;;;;5051729;28;20044;-70
2022/09/05 00:30:18;;;;;;;10.48;8.82;;;18.00;99.90;;;;;;5047805;28;20056;-69
2022/09/05 00:33:15;;;;;;;12.32;9.18;;;17.90;99.90;;;;;;5052826;28;20040;-69
2022/09/05 00:35:55;;;;;;;10.43;9.32;;;17.90;99.90;;;;;;5045806;28;20414;-69
2022/09/05 00:38:25;;;;;;;10.43;9.00;;;17.90;99.90;;;;;;5051217;28;20043;-69
2022/09/05 00:41:03;;;;;;;11.82;9.02;;;17.80;99.90;;;;;;5030167;28;20399;-69
2022/09/05 00:43:42;;;;;;;11.35;9.30;;;17.80;99.90;;;;;;5046563;28;20085;-69
2022/09/05 00:46:23;;;;;;;11.90;8.80;;;17.80;99.90;;;;;;5049997;28;20518;-69
2022/09/05 00:49:01;;;;;;;10.48;9.15;;;17.70;99.90;;;;;;5047446;28;20060;-69
2022/09/05 00:51:37;;;;;;;11.25;8.90;;;17.70;99.90;;;;;;5046773;28;20048;-69
2022/09/05 00:54:17;;;;;;;11.23;9.27;;;17.70;99.90;;;;;;5064554;28;20044;-69
2022/09/05 00:57:21;;;;;;;10.05;9.05;;;17.70;99.90;;;;;;5051508;28;20044;-69
2022/09/05 00:59:56;;;;;;;11.35;9.40;;;17.60;99.90;;;;;;5036376;28;20053;-69
2022/09/05 01:02:39;;;;;;;14.63;9.73;;;17.60;99.90;;;;;;5025773;28;20059;-69
2022/09/05 01:05:42;;;;;;;11.85;9.65;;;17.60;99.90;;;;;;5061982;28;20422;-69
2022/09/05 01:08:41;;;;;;;13.10;9.80;;;17.60;99.90;;;;;;5062793;28;20036;-69
2022/09/05 01:11:27;;;;;;;10.90;9.27;;;17.60;99.90;;;;;;5058968;28;20044;-69
2022/09/05 01:14:00;;;;;;;11.48;9.15;;;17.60;99.90;;;;;;5067665;28;20491;-69
2022/09/05 01:16:52;;;;;;;12.07;9.68;;;17.60;99.90;;;;;;5063582;28;20037;-69
2022/09/05 01:19:44;;;;;;;12.40;9.65;;;17.50;99.90;;;;;;5044716;28;20116;-68
2022/09/05 01:22:22;;;;;;;14.73;10.38;;;17.50;99.90;;;;;;5050385;28;20033;-69
2022/09/05 01:25:02;;;;;;;14.70;10.48;;;17.50;99.90;;;;;;5045768;28;20096;-69
2022/09/05 01:27:46;;;;;;;12.48;10.25;;;17.50;99.90;;;;;;5043703;28;20040;-69
2022/09/05 01:30:32;;;;;;;12.90;10.20;;;17.40;99.90;;;;;;5046408;28;20056;-69
2022/09/05 01:32:58;;;;;;;13.20;10.60;;;17.40;99.90;;;;;;5056845;28;20037;-69
2022/09/05 01:35:26;;;;;;;14.57;10.65;;;17.40;99.90;;;;;;5046009;28;20045;-69
2022/09/05 01:38:05;;;;;;;13.80;10.70;;;17.40;99.90;;;;;;5051346;28;20072;-69
2022/09/05 01:41:04;;;;;;;14.05;10.93;;;17.40;99.90;;;;;;5045743;28;20115;-69
2022/09/05 01:43:30;;;;;;;11.90;10.70;;;17.30;99.90;;;;;;5047185;28;20049;-69
2022/09/05 01:46:18;;;;;;;14.27;11.40;;;17.30;99.90;;;;;;5051218;28;20078;-69
2022/09/05 01:48:59;;;;;;;13.68;10.98;;;17.30;99.90;;;;;;5051802;28;20119;-69
2022/09/05 01:51:28;;;;;;;15.85;11.65;;;17.30;99.90;;;;;;5049269;28;20648;-68
2022/09/05 01:53:57;;;;;;;13.88;10.93;;;17.20;99.90;;;;;;5064019;28;20044;-68
2022/09/05 01:56:50;;;;;;;12.88;11.48;;;17.20;99.90;;;;;;5045842;28;20040;-68
2022/09/05 01:59:15;;;;;;;;;;;17.20;99.90;;;;;;5046475;28;20045;-68
2022/09/05 02:02:13;;;;;;;17.50;12.25;;;17.20;99.90;;;;;;5046217;28;20266;-68
2022/09/05 02:05:05;;;;;;;15.95;13.10;;;17.10;99.90;;;;;;5047414;28;20151;-68
2022/09/05 02:07:36;;;;;;;13.63;12.23;;;17.00;99.90;;;;;;5043246;28;20076;-69
2022/09/05 02:10:41;;;;;;;13.27;11.97;;;17.00;99.90;;;;;;5063845;28;20033;-69
2022/09/05 02:13:10;;;;;;;13.52;12.13;;;17.00;99.90;;;;;;5041970;28;20037;-69
2022/09/05 02:15:50;;;;;;;13.48;12.07;;;17.00;99.90;;;;;;5048925;28;20052;-69
2022/09/05 02:18:25;;;;;;;14.50;12.63;;;16.90;99.90;;;;;;5041103;28;20045;-69
2022/09/05 02:21:03;;;;;;;13.85;11.75;;;16.90;99.90;;;;;;5045072;28;20490;-69
2022/09/05 02:23:38;;;;;;;17.77;12.38;;;16.90;99.90;;;;;;5047932;28;20471;-69
2022/09/05 02:26:28;;;;;;;14.55;12.63;;;16.90;99.90;;;;;;5044337;28;20116;-69
2022/09/05 02:29:20;;;;;;;18.80;12.50;;;16.90;99.90;;;;;;5063796;28;20037;-69
2022/09/05 02:31:49;;;;;;;15.13;12.20;;;16.80;99.90;;;;;;5043945;28;20119;-69
2022/09/05 02:34:33;;;;;;;15.77;12.23;;;16.80;99.90;;;;;;5047882;28;20700;-69
2022/09/05 02:37:22;;;;;;;12.90;11.50;;;16.80;99.90;;;;;;5047522;28;20262;-69
2022/09/05 02:39:56;;;;;;;15.45;11.70;;;16.80;99.90;;;;;;5038357;28;20045;-69
2022/09/05 02:42:40;;;;;;;14.00;10.88;;;16.70;99.90;;;;;;5043412;28;20048;-69
2022/09/05 02:45:19;;;;;;;12.48;10.85;;;16.70;99.90;;;;;;5054259;28;20127;-69
2022/09/05 02:48:03;;;;;;;13.15;11.43;;;16.60;99.90;;;;;;5043328;28;20045;-70
2022/09/05 02:50:29;;;;;;;12.90;10.95;;;16.60;99.90;;;;;;5055055;28;20080;-68
2022/09/05 02:52:56;;;;;;;11.70;10.27;;;16.50;99.90;;;;;;5042078;28;20135;-69
2022/09/05 02:55:59;;;;;;;12.88;10.55;;;16.50;99.90;;;;;;5048552;28;20040;-69
2022/09/05 02:58:47;;;;;;;11.13;9.98;;;16.50;99.90;;;;;;5045500;28;20041;-69
2022/09/05 03:01:40;;;;;;;12.40;10.65;;;16.40;99.90;;;;;;5045179;28;20033;-69
2022/09/05 03:04:24;;;;;;;16.38;11.23;;;16.40;99.90;;;;;;5052101;28;20033;-69
2022/09/05 03:07:28;;;;;;;14.63;11.15;;;16.40;99.90;;;;;;5041641;28;20045;-69
2022/09/05 03:10:16;;;;;;;13.25;11.85;;;16.30;99.90;;;;;;5052031;28;20120;-69
2022/09/05 03:13:21;;;;;;;14.07;12.02;;;16.30;99.90;;;;;;5051941;28;20249;-69
2022/09/05 03:15:55;;;;;;;14.93;12.00;;;16.30;99.90;;;;;;5028993;28;20099;-69
2022/09/05 03:18:56;;;;;;;13.43;11.90;;;16.30;99.90;;;;;;5044693;28;20041;-69
2022/09/05 03:21:53;;;;;;;14.82;12.27;;;16.30;99.90;;;;;;5052111;28;20128;-68
2022/09/05 03:24:43;;;;;;;14.73;12.18;;;16.30;99.90;;;;;;5061950;28;20459;-69
2022/09/05 03:27:27;;;;;;;13.00;11.60;;;16.30;99.90;;;;;;5051956;28;20462;-68
2022/09/05 03:30:19;;;;;;;14.23;12.10;;;16.20;99.90;;;;;;5057888;28;20041;-68
2022/09/05 03:33:03;;;;;;;16.70;12.32;;;16.20;99.90;;;;;;5055986;28;20099;-68
2022/09/05 03:35:31;;;;;;;13.38;11.43;;;16.10;99.90;;;;;;5046481;28;20041;-68
2022/09/05 03:38:03;;;;;;;15.07;12.15;;;16.10;99.90;;;;;;5050939;28;20445;-68
2022/09/05 03:41:19;;;;;;;12.98;11.57;;;16.10;99.90;;;;;;5043725;28;20029;-68
2022/09/05 03:44:07;;;;;;;15.27;13.68;;;16.10;99.90;;;;;;5014890;28;20069;-69
2022/09/05 03:46:32;;;;;;;13.93;12.50;;;16.10;99.90;;;;;;5059050;28;20036;-68
2022/09/05 03:49:26;;;;;;;14.73;12.85;;;16.00;99.90;;;;;;5045618;28;20041;-68
2022/09/05 03:52:21;;;;;;;13.98;12.52;;;16.10;99.90;;;;;;5046473;28;20040;-69
2022/09/05 03:55:08;;;;;;;16.60;12.45;;;16.10;99.90;;;;;;5058614;28;20051;-68
2022/09/05 03:58:11;;;;;;;14.18;12.68;;;16.10;99.90;;;;;;5052266;28;20044;-68
2022/09/05 04:00:39;;;;;;;16.30;12.88;;;16.10;99.90;;;;;;5048731;28;20041;-68
2022/09/05 04:03:19;;;;;;;13.73;12.43;;;16.10;99.90;;;;;;5070162;28;20040;-68
2022/09/05 04:05:51;;;;;;;15.20;13.50;;;16.00;99.90;;;;;;5048870;28;20045;-68
2022/09/05 04:08:35;;;;;;;15.70;13.90;;;16.00;99.90;;;;;;5060628;28;20053;-68
2022/09/05 04:11:00;;;;;;;15.52;13.90;;;16.00;99.90;;;;;;5064556;28;21336;-68
2022/09/05 04:13:32;;;;;;;16.83;13.45;;;16.00;99.90;;;;;;5056915;28;20063;-68
2022/09/05 04:16:28;;;;;;;16.67;14.68;;;16.00;99.90;;;;;;5051047;28;20069;-68
2022/09/05 04:19:09;;;;;;;16.67;14.43;;;16.00;99.90;;;;;;5054848;28;20119;-68
2022/09/05 04:21:45;;;;;;;15.60;14.00;;;16.00;99.90;;;;;;5054831;28;20119;-68
2022/09/05 04:24:42;;;;;;;15.70;13.95;;;16.00;99.90;;;;;;5056447;28;20589;-68
2022/09/05 04:27:47;;;;;;;20.05;14.48;;;15.90;99.90;;;;;;5049601;28;20052;-68
2022/09/05 04:30:36;;;;;;;19.27;14.98;;;15.90;99.90;;;;;;5067216;28;20507;-68
2022/09/05 04:33:23;;;;;;;16.02;13.85;;;15.90;99.90;;;;;;5068031;28;20048;-68
2022/09/05 04:36:22;;;;;;;17.60;13.50;;;15.90;99.90;;;;;;5052286;28;20035;-68
2022/09/05 04:39:17;;;;;;;14.50;12.57;;;15.90;99.90;;;;;;5057136;28;20047;-68
2022/09/05 04:42:03;;;;;;;14.60;13.07;;;15.80;99.90;;;;;;5054161;28;20538;-68
2022/09/05 04:44:31;;;;;;;23.83;13.60;;;15.90;99.90;;;;;;5066382;28;20422;-68
2022/09/05 04:47:07;;;;;;;14.57;12.65;;;15.80;99.90;;;;;;5048080;28;20570;-68
2022/09/05 04:49:38;;;;;;;15.13;13.07;;;15.80;99.90;;;;;;5056164;28;20037;-68
2022/09/05 04:52:22;;;;;;;15.80;13.18;;;15.80;99.90;;;;;;5067583;28;20086;-69
2022/09/05 04:55:07;;;;;;;19.25;13.05;;;15.80;99.90;;;;;;5044740;28;20694;-68
2022/09/05 04:57:41;;;;;;;14.35;12.85;;;15.80;99.90;;;;;;5050453;28;20076;-68
2022/09/05 05:00:14;;;;;;;15.07;13.48;;;15.80;99.90;;;;;;5040916;28;20037;-68
2022/09/05 05:02:53;;;;;;;;;;;15.80;99.90;;;;;;5046494;28;20055;-68
2022/09/05 05:05:23;;;;;;;16.08;13.95;;;15.80;99.90;;;;;;5035094;28;19916;-68
2022/09/05 05:07:57;;;;;;;14.52;12.85;;;15.80;99.90;;;;;;5050577;28;20094;-69
2022/09/05 05:10:30;;;;;;;14.85;13.25;;;15.80;99.90;;;;;;5045456;28;20052;-68
2022/09/05 05:13:19;;;;;;;16.85;13.40;;;15.80;99.90;;;;;;5041183;28;20041;-68
2022/09/05 05:15:54;;;;;;;17.42;13.98;;;15.70;99.90;;;;;;5032127;28;20045;-68
2022/09/05 05:18:34;;;;;;;15.70;13.82;;;15.80;99.90;;;;;;5044873;28;20041;-67
2022/09/05 05:21:08;;;;;;;16.65;14.38;;;15.80;99.90;;;;;;5063517;28;20036;-68
2022/09/05 05:23:39;;;;;;;15.43;13.82;;;15.80;99.90;;;;;;5062065;28;20040;-67
2022/09/05 05:26:12;;;;;;;16.25;14.32;;;15.80;99.90;;;;;;5050587;28;20613;-67
2022/09/05 05:29:07;;;;;;;16.35;14.57;;;15.80;99.90;;;;;;5048677;28;20053;-68
2022/09/05 05:31:46;;;;;;;17.17;14.07;;;15.80;99.90;;;;;;5057518;28;20422;-68
2022/09/05 05:34:23;;;;;;;15.30;13.63;;;15.80;99.90;;;;;;5048204;28;20418;-68
2022/09/05 05:36:59;;;;;;;16.23;14.63;;;15.80;99.90;;;;;;5054679;28;20073;-68
2022/09/05 05:39:28;;;;;;;17.25;13.95;;;15.80;99.90;;;;;;5049394;28;20037;-68
2022/09/05 05:41:55;;;;;;;17.00;13.82;;;15.80;99.90;;;;;;5052507;28;20037;-68
2022/09/05 05:44:33;;;;;;;15.00;13.45;;;15.80;99.90;;;;;;5058084;28;20055;-68
2022/09/05 05:47:04;;;;;;;18.35;14.07;;;15.80;99.90;;;;;;5055412;28;20365;-68
2022/09/05 05:49:44;;;;;;;17.27;14.07;;;15.80;99.90;;;;;;5072291;28;20037;-68
2022/09/05 05:52:41;;;;;;;17.27;14.13;;;15.90;99.90;;;;;;5060782;28;22117;-68
2022/09/05 05:55:15;;;;;;;17.13;14.35;;;15.90;99.90;;;;;;5060147;28;20037;-68
2022/09/05 05:58:00;;;;;;;21.05;14.85;;;15.90;99.90;;;;;;5067206;28;20459;-68
2022/09/05 06:00:37;;;;;;;20.52;15.15;;;15.90;99.90;;;;;;5067691;28;20029;-68
2022/09/05 06:03:25;;;;;;;16.50;14.70;;;15.90;99.90;;;;;;5054702;28;20123;-67
2022/09/05 06:06:15;;;;;;;19.42;15.05;;;16.00;99.90;;;;;;5067141;28;20041;-66
2022/09/05 06:09:01;;;;;;;19.02;16.30;;;16.00;99.90;;;;;;5055786;28;20509;-67
2022/09/05 06:11:32;;;;;;;18.65;16.65;;;16.00;99.90;;;;;;5054666;28;20067;-67
2022/09/05 06:14:37;;;;;;;17.50;15.70;;;16.10;99.90;;;;;;5053321;28;20522;-67
2022/09/05 06:17:20;;;;;;;16.92;15.13;;;16.10;99.90;;;;;;5070836;28;20458;-67
2022/09/05 06:20:28;;;;;;;16.98;15.00;;;16.20;99.90;;;;;;5050470;28;20488;-67
2022/09/05 06:23:18;;;;;;;19.83;15.70;;;16.30;99.90;;;;;;5050489;28;20063;-66
2022/09/05 06:26:02;;;;;;;19.90;16.02;;;16.40;99.90;;;;;;5050355;28;20041;-67
2022/09/05 06:29:16;;;;;;;21.35;15.43;;;16.50;99.90;;;;;;5051832;28;20400;-67
2022/09/05 06:31:52;;;;;;;18.52;16.02;;;16.60;99.90;;;;;;5036450;28;20057;-67
2022/09/05 06:34:40;;;;;;;17.23;15.07;;;16.70;99.90;;;;;;5054747;28;20033;-67
2022/09/05 06:37:23;;;;;;;19.23;17.25;;;16.80;99.90;;;;;;5066543;28;20063;-67
2022/09/05 06:40:23;;;;;;;19.02;15.57;;;17.00;99.90;;;;;;5051204;28;20111;-67
2022/09/05 06:43:09;;;;;;;21.60;15.27;;;17.10;99.90;;;;;;5062733;28;20102;-68
2022/09/05 06:46:12;;;;;;;18.42;15.93;;;17.20;99.90;;;;;;5048250;28;20037;-67
2022/09/05 06:49:03;;;;;;;18.65;15.23;;;17.30;99.90;;;;;;5045196;28;20077;-67
2022/09/05 06:51:38;;;;;;;18.30;16.23;;;17.40;99.90;;;;;;5051563;28;20049;-67
2022/09/05 06:54:13;;;;;;;21.52;16.35;;;17.50;99.90;;;;;;5043479;28;20047;-67
2022/09/05 06:56:47;;;;;;;16.63;14.10;;;17.60;99.90;;;;;;5050153;28;20490;-67
2022/09/05 06:59:47;;;;;;;17.67;15.85;;;17.70;99.90;;;;;;5031347;28;20048;-68
2022/09/05 07:02:22;;;;;;;18.15;15.32;;;17.90;99.90;;;;;;5033402;28;20388;-67
2022/09/05 07:05:13;;;;;;;16.77;15.00;;;18.20;99.90;;;;;;5040099;28;20041;-68
2022/09/05 07:07:53;;;;;;;19.47;15.70;;;18.30;99.90;;;;;;5051596;28;20037;-67
2022/09/05 07:10:43;;;;;;;17.25;15.13;;;18.40;99.90;;;;;;5034404;28;20056;-68
2022/09/05 07:13:37;;;;;;;16.85;15.05;;;18.70;99.90;;;;;;5031824;28;20075;-68
2022/09/05 07:16:16;;;;;;;16.80;14.98;;;18.80;99.90;;;;;;5040374;28;20044;-68
2022/09/05 07:19:13;;;;;;;18.38;15.00;;;19.00;99.90;;;;;;5043534;28;20095;-68
2022/09/05 07:21:51;;;;;;;17.30;14.35;;;19.20;99.90;;;;;;5047413;28;20048;-68
2022/09/05 07:24:24;;;;;;;16.58;13.73;;;19.30;99.90;;;;;;5039387;28;20038;-68
2022/09/05 07:26:52;;;;;;;16.98;13.52;;;19.40;99.90;;;;;;5061975;28;20426;-68
2022/09/05 07:29:23;;;;;;;15.75;13.85;;;19.60;99.90;;;;;;5051125;28;20071;-68
2022/09/05 07:31:52;;;;;;;15.93;13.98;;;19.70;99.90;;;;;;5050428;28;20542;-69
2022/09/05 07:34:24;;;;;;;14.80;13.27;;;19.90;99.90;;;;;;5051118;28;20045;-69
2022/09/05 07:37:08;;;;;;;15.60;13.45;;;20.00;99.90;;;;;;5051520;28;20168;-68
2022/09/05 07:39:42;;;;;;;15.68;13.90;;;20.10;99.90;;;;;;5052638;28;20268;-67
2022/09/05 07:42:14;;;;;;;15.63;14.05;;;20.30;99.90;;;;;;5041093;28;20044;-68
2022/09/05 07:44:50;;;;;;;16.95;14.55;;;20.50;99.90;;;;;;5046683;28;20037;-68
2022/09/05 07:47:21;;;;;;;17.05;15.35;;;20.50;99.90;;;;;;5015021;28;20191;-69
2022/09/05 07:49:49;;;;;;;16.15;14.50;;;20.50;99.90;;;;;;5048991;28;20091;-68
2022/09/05 07:52:19;;;;;;;17.17;14.82;;;20.50;99.90;;;;;;5050620;28;20048;-69
2022/09/05 07:54:45;;;;;;;17.00;14.65;;;20.50;99.90;;;;;;5044656;28;20434;-69
2022/09/05 07:57:20;;;;;;;19.58;15.45;;;20.60;99.90;;;;;;5044953;28;20051;-68
2022/09/05 07:59:50;;;;;;;16.42;14.50;;;20.70;99.90;;;;;;5048179;28;20036;-68
2022/09/05 08:02:16;;;;;;;18.08;15.13;;;20.90;99.90;;;;;;5049690;28;20491;-68
2022/09/05 08:04:42;;;;;;;16.92;14.45;;;21.00;99.90;;;;;;5041244;28;20048;-67
2022/09/05 08:07:13;;;;;;;20.13;15.02;;;21.20;99.90;;;;;;5044428;28;20120;-68
2022/09/05 08:09:53;;;;;;;17.73;14.73;;;21.30;99.90;;;;;;5047816;28;20178;-68
2022/09/05 08:12:25;;;;;;;15.57;13.93;;;21.40;99.90;;;;;;5047523;28;20175;-67
2022/09/05 08:15:07;;;;;;;17.05;14.60;;;21.50;99.90;;;;;;5036228;28;20049;-67
2022/09/05 08:17:45;;;;;;;16.27;14.32;;;21.60;99.90;;;;;;5049279;28;20506;-68
2022/09/05 08:20:28;;;;;;;16.60;14.48;;;21.70;99.90;;;;;;5050600;28;20065;-67
2022/09/05 08:23:06;;;;;;;16.27;14.48;;;21.80;99.90;;;;;;5049677;28;20041;-68
2022/09/05 08:25:38;;;;;;;18.00;14.77;;;21.90;99.90;;;;;;5050780;28;20041;-68
2022/09/05 08:28:22;;;;;;;16.80;14.70;;;22.00;99.90;;;;;;5041687;28;20522;-67
2022/09/05 08:31:18;;;;;;;15.27;13.77;;;22.20;99.90;;;;;;5049303;28;20095;-68
2022/09/05 08:33:47;;;;;;;18.50;14.40;;;22.30;99.90;;;;;;5049525;28;20060;-66
2022/09/05 08:36:30;;;;;;;18.13;15.18;;;22.40;99.90;;;;;;5049791;28;20053;-68
2022/09/05 08:39:00;;;;;;;15.77;14.13;;;22.60;99.90;;;;;;5048865;28;20098;-67
2022/09/05 08:41:32;;;;;;;17.13;13.20;;;22.70;99.90;;;;;;5051723;28;20091;-67
2022/09/05 08:44:12;;;;;;;14.70;13.18;;;22.80;99.90;;;;;;5051346;28;20095;-68
2022/09/05 08:46:54;;;;;;;16.75;13.50;;;22.90;99.90;;;;;;5038954;28;20407;-68
2022/09/05 08:50:14;;;;;;;17.85;13.77;;;23.00;99.90;;;;;;5069948;28;20037;-68
2022/09/05 08:52:58;;;;;;;14.95;13.35;;;23.20;99.90;;;;;;5050917;28;20053;-68
2022/09/05 08:55:50;;;;;;;13.30;11.95;;;23.30;99.90;;;;;;5049016;28;20092;-66
2022/09/05 08:58:43;;;;;;;17.48;12.57;;;23.30;99.90;;;;;;5044994;28;20033;-67
2022/09/05 09:01:27;;;;;;;15.77;13.00;;;23.50;99.90;;;;;;5054183;28;20041;-68
2022/09/05 09:03:55;;;;;;;14.90;12.60;;;23.50;99.90;;;;;;5067083;28;20395;-67
2022/09/05 09:06:30;;;;;;;15.40;12.43;;;23.70;99.90;;;;;;5052963;28;20128;-68
2022/09/05 09:09:34;;;;;;;16.13;12.23;;;23.70;99.90;;;;;;5045347;28;20065;-66
2022/09/05 09:12:24;;;;;;;14.70;12.02;;;23.80;99.90;;;;;;5048621;28;20045;-68
2022/09/05 09:15:00;;;;;;;13.50;11.45;;;23.90;99.90;;;;;;5033413;28;20374;-67
2022/09/05 09:17:40;;;;;;;17.02;13.75;;;24.00;99.90;;;;;;5040052;28;20037;-67
2022/09/05 09:20:32;;;;;;;16.17;14.10;;;24.00;99.90;;;;;;5042003;28;20088;-69
2022/09/05 09:23:05;;;;;;;15.23;13.67;;;24.00;99.90;;;;;;5049574;28;20044;-68
2022/09/05 09:25:38;;;;;;;18.25;14.57;;;24.20;99.90;;;;;;5067643;28;21259;-69
2022/09/05 09:28:41;;;;;;;21.58;14.65;;;24.20;99.90;;;;;;5055300;28;20048;-69
2022/09/05 09:31:33;;;;;;;18.42;14.27;;;24.40;99.90;;;;;;5059767;28;20092;-67
2022/09/05 09:34:17;;;;;;;17.35;14.05;;;24.40;99.90;;;;;;5033199;28;20402;-68
2022/09/05 09:37:10;;;;;;;18.45;13.50;;;24.50;99.90;;;;;;5050588;28;20555;-67
2022/09/05 09:40:02;;;;;;;16.60;13.55;;;24.60;99.90;;;;;;5049588;28;20059;-68
2022/09/05 09:43:00;;;;;;;14.73;13.10;;;24.70;99.90;;;;;;5052078;28;20064;-67
2022/09/05 09:46:03;;;;;;;14.98;12.57;;;24.90;99.90;;;;;;5051164;28;20037;-68
2022/09/05 09:48:47;;;;;;;14.75;12.23;;;25.00;99.90;;;;;;5048685;28;20785;-67
2022/09/05 09:51:30;;;;;;;14.85;12.48;;;25.10;99.90;;;;;;5061618;28;20056;-68
2022/09/05 09:54:17;;;;;;;14.23;11.65;;;25.20;99.90;;;;;;5052098;28;20056;-68
2022/09/05 09:57:11;;;;;;;12.40;11.20;;;25.20;99.90;;;;;;5047912;28;20094;-67
2022/09/05 09:59:44;;;;;;;13.32;10.15;;;25.30;99.90;;;;;;5050939;28;20123;-69
2022/09/05 10:02:42;;;;;;;10.50;9.45;;;25.40;99.90;;;;;;5059833;28;20078;-68
2022/09/05 10:05:50;;;;;;;11.27;9.75;;;25.50;99.90;;;;;;5049884;28;20044;-67
2022/09/05 10:08:49;;;;;;;13.80;8.75;;;25.60;99.90;;;;;;5033656;28;20049;-68
2022/09/05 10:11:37;;;;;;;10.60;9.50;;;25.70;99.90;;;;;;5053415;28;20045;-67
2022/09/05 10:14:15;;;;;;;11.32;8.85;;;25.80;99.90;;;;;;5039684;28;20107;-70
2022/09/05 10:17:07;;;;;;;9.88;8.60;;;25.80;99.90;;;;;;5050723;28;20045;-68
2022/09/05 10:19:53;;;;;;;11.63;8.70;;;25.90;99.90;;;;;;5025741;28;20052;-67
2022/09/05 10:22:30;;;;;;;9.07;8.18;;;26.10;99.90;;;;;;5030644;28;20049;-68
2022/09/05 10:25:45;;;;;;;9.57;7.82;;;26.20;99.90;;;;;;5048614;28;20395;-68
2022/09/05 10:28:26;;;;;;;10.45;8.45;;;26.30;99.90;;;;;;5042898;28;20127;-69
2022/09/05 10:31:12;;;;;;;10.45;7.97;;;26.30;99.90;;;;;;5056052;28;20495;-67
2022/09/05 10:34:08;;;;;;;12.15;7.55;;;26.40;99.90;;;;;;5069312;28;20033;-67
2022/09/05 10:36:36;;;;;;;9.07;7.10;;;26.40;99.90;;;;;;5047477;28;20095;-68
2022/09/05 10:39:07;;;;;;;9.20;7.70;;;26.50;99.90;;;;;;5068128;28;20123;-68
2022/09/05 10:41:54;;;;;;;8.90;6.28;;;26.60;99.90;;;;;;5050992;28;20041;-67
2022/09/05 10:44:54;;;;;;;7.75;6.30;;;26.70;99.90;;;;;;5048522;28;20051;-68
2022/09/05 10:47:20;;;;;;;6.47;5.88;;;26.70;99.90;;;;;;5035368;28;20041;-68
2022/09/05 10:49:59;;;;;;;9.80;6.75;;;26.70;99.90;;;;;;5048903;28;20056;-69
2022/09/05 10:52:36;;;;;;;7.88;6.25;;;26.80;99.90;;;;;;5050301;28;20037;-67
2022/09/05 10:55:25;;;;;;;8.57;6.30;;;26.80;99.90;;;;;;5029418;28;20522;-68
2022/09/05 10:58:31;;;;;;;6.35;5.45;;;26.80;99.90;;;;;;5046434;28;20400;-68
2022/09/05 11:01:21;;;;;;;13.48;6.38;;;26.90;99.90;;;;;;5046138;28;20045;-69
2022/09/05 11:04:12;;;;;;;9.77;5.95;;;26.90;99.90;;;;;;5030802;28;20045;-67
2022/09/05 11:06:43;;;;;;;6.35;5.65;;;26.90;99.90;;;;;;5064215;28;20132;-69
2022/09/05 11:09:50;;;;;;;6.65;6.03;;;26.90;99.90;;;;;;5050180;28;20073;-68
2022/09/05 11:12:47;;;;;;;10.38;6.07;;;26.90;99.90;;;;;;5052968;28;20041;-67
2022/09/05 11:15:53;;;;;;;8.43;6.68;;;26.90;99.90;;;;;;5029416;28;20397;-69
2022/09/05 11:18:42;;;;;;;9.60;6.63;;;27.00;99.90;;;;;;5046765;28;20041;-68
2022/09/05 11:21:19;;;;;;;7.10;6.40;;;27.10;99.90;;;;;;5030017;28;20045;-69
2022/09/05 11:23:51;;;;;;;7.53;5.85;;;27.10;99.90;;;;;;5047283;28;20037;-67
2022/09/05 11:26:38;;;;;;;10.80;5.60;;;27.20;99.90;;;;;;5055823;28;20045;-69
2022/09/05 11:29:22;;;;;;;7.68;6.03;;;27.20;99.90;;;;;;5056842;28;20052;-69
2022/09/05 11:32:06;;;;;;;7.22;6.25;;;27.20;99.90;;;;;;5048311;28;20095;-68
2022/09/05 11:34:44;;;;;;;7.40;5.70;;;27.10;99.90;;;;;;5029474;28;20056;-68
2022/09/05 11:37:48;;;;;;;6.53;5.43;;;27.10;99.90;;;;;;5038954;28;20098;-68
2022/09/05 11:40:24;;;;;;;8.77;5.20;;;27.10;99.90;;;;;;5052157;28;20040;-69
2022/09/05 11:43:08;;;;;;;5.85;4.72;;;27.20;99.90;;;;;;5043385;28;20045;-68
2022/09/05 11:46:26;;;;;;;7.72;6.10;;;27.20;99.90;;;;;;5032082;28;20487;-68
2022/09/05 11:49:30;;;;;;;5.40;4.88;;;27.30;99.90;;;;;;5037904;28;20496;-68
2022/09/05 11:52:26;;;;;;;6.80;5.60;;;27.20;99.90;;;;;;5048787;28;20399;-68
2022/09/05 11:55:10;;;;;;;6.53;5.38;;;27.20;99.90;;;;;;5047491;28;20037;-69
2022/09/05 11:57:51;;;;;;;5.93;5.30;;;27.10;99.90;;;;;;5051579;28;20438;-70
2022/09/05 12:00:26;;;;;;;8.13;5.25;;;27.20;99.90;;;;;;5049776;28;20047;-68
2022/09/05 12:03:01;;;;;;;5.93;4.80;;;27.30;99.90;;;;;;5046855;28;20041;-69
2022/09/05 12:05:30;;;;;;;6.28;4.72;;;27.40;99.90;;;;;;5041467;28;20135;-68
2022/09/05 12:08:12;;;;;;;4.88;4.40;;;27.50;99.90;;;;;;5043923;28;20164;-70
2022/09/05 12:10:59;;;;;;;6.53;4.63;;;27.50;99.90;;;;;;5046822;28;20083;-69
2022/09/05 12:13:36;;;;;;;7.05;4.75;;;27.50;99.50;;;;;;5047312;28;20496;-68
2022/09/05 12:16:36;;;;;;;6.25;4.50;;;27.60;99.70;;;;;;5040113;28;20060;-68
2022/09/05 12:19:15;;;;;;;5.53;4.20;;;27.60;99.70;;;;;;5039365;28;20500;-69
2022/09/05 12:22:15;;;;;;;7.47;5.00;;;27.60;99.90;;;;;;5047476;28;20056;-68
2022/09/05 12:24:55;;;;;;;5.90;4.10;;;27.50;99.90;;;;;;5047384;28;20049;-69
2022/09/05 12:27:28;;;;;;;5.10;4.13;;;27.60;99.90;;;;;;5034406;28;20183;-69
2022/09/05 12:29:57;;;;;;;6.93;4.20;;;27.60;99.80;;;;;;5045156;28;20045;-68
2022/09/05 12:32:26;;;;;;;5.15;4.22;;;27.70;99.90;;;;;;5042914;28;20039;-69
2022/09/05 12:34:59;;;;;;;6.53;4.20;;;27.80;99.30;;;;;;5048240;28;20041;-68
2022/09/05 12:37:57;;;;;;;6.80;4.25;;;27.80;99.30;;;;;;5048311;28;20049;-70
2022/09/05 12:41:06;;;;;;;6.22;4.30;;;27.70;99.20;;;;;;5042036;28;20041;-68
2022/09/05 12:43:34;;;;;;;4.50;4.15;;;27.70;98.00;;;;;;5023130;28;20050;-68
2022/09/05 12:46:25;;;;;;;8.13;4.65;;;27.70;98.60;;;;;;5046262;28;20061;-69
2022/09/05 12:49:05;;;;;;;6.35;4.43;;;27.70;99.40;;;;;;5038381;28;20061;-69
2022/09/05 12:51:36;;;;;;;6.03;4.20;;;27.70;97.70;;;;;;5047911;28;20040;-69
2022/09/05 12:54:15;;;;;;;8.65;4.40;;;27.70;97.90;;;;;;5048147;28;20052;-69
2022/09/05 12:56:50;;;;;;;6.65;4.18;;;27.80;98.40;;;;;;5047949;28;20087;-70
2022/09/05 12:59:25;;;;;;;6.55;4.47;;;27.70;98.60;;;;;;5046939;28;20120;-69
2022/09/05 13:02:02;;;;;;;6.00;4.43;;;27.70;98.30;;;;;;5042505;28;20044;-68
2022/09/05 13:04:35;;;;;;;7.47;5.63;;;27.80;98.50;;;;;;5040874;28;20060;-69
2022/09/05 13:07:01;;;;;;;6.45;4.68;;;27.70;98.50;;;;;;5063953;28;20056;-68
2022/09/05 13:09:43;;;;;;;7.78;4.80;;;27.70;97.30;;;;;;5041184;28;20041;-68
2022/09/05 13:12:18;;;;;;;9.90;4.85;;;27.80;98.10;;;;;;5044123;28;20092;-70
2022/09/05 13:15:25;;;;;;;7.18;4.50;;;27.80;97.60;;;;;;5064296;28;20049;-68
2022/09/05 13:18:13;;;;;;;7.13;4.78;;;27.90;98.50;;;;;;5062437;28;20068;-70
2022/09/05 13:20:50;;;;;;;8.20;5.20;;;27.90;99.00;;;;;;5048888;28;20509;-68
2022/09/05 13:23:30;;;;;;;8.07;4.72;;;28.00;98.80;;;;;;5048175;28;20028;-67
2022/09/05 13:26:06;;;;;;;6.05;4.70;;;28.00;97.50;;;;;;5032115;28;20167;-67
2022/09/05 13:28:45;;;;;;;6.80;5.40;;;28.00;98.20;;;;;;5045931;28;20045;-69
2022/09/05 13:31:13;;;;;;;6.03;5.05;;;28.10;98.10;;;;;;5050751;28;20776;-69
2022/09/05 13:33:50;;;;;;;7.10;4.82;;;28.10;98.30;;;;;;5050569;28;20045;-68
2022/09/05 13:36:24;;;;;;;5.63;4.93;;;28.10;97.40;;;;;;5052282;28;20372;-69
2022/09/05 13:39:08;;;;;;;6.30;5.05;;;28.10;97.70;;;;;;5052382;28;20049;-69
2022/09/05 13:41:40;;;;;;;6.57;4.40;;;28.10;97.30;;;;;;5051378;28;20041;-68
2022/09/05 13:44:12;;;;;;;6.13;4.45;;;28.10;96.20;;;;;;5050647;28;20079;-68
2022/09/05 13:46:53;;;;;;;6.47;4.80;;;28.20;96.70;;;;;;5068453;28;20047;-70
2022/09/05 13:49:27;;;;;;;6.43;4.67;;;28.20;96.60;;;;;;5051742;28;20051;-68
2022/09/05 13:52:24;;;;;;;8.07;4.85;;;28.10;96.10;;;;;;5045017;28;20411;-68